FKKD

Douala International Airport

Douala, Cameroon
METAR FKKD 160300Z 10001KT 9999 SCT013 FEW016CB 25/25 Q1012 NOSIG
Observed Flight Rules
Dec-16 @ 03:00 UTC (an hour ago) Visual Flight Rules
Wind Visibility Clouds
100° at 1 knots 10,000+ meters
  • Scattered at 1,300' AGL
  • Few at 1,600' AGL
Temperatures Readings
Current 25°C / 77°F
Dewpoint 25°C / 77°F
Humidity 100%
Altimeter 29.88" Hg
Pressure 1012 hPa
Elevation 9
METAR FKKD 160300Z 10001KT 9999 SCT013 FEW016CB 25/25 Q1012 NOSIG
Observed Flight Rules
Dec-16 @ 03:00 UTC
(an hour ago)
VFR
Wind Visibility
100° at 1 knots 10,000+ meters
Clouds
  • Scattered at 1,300' AGL
  • Few at 1,600' AGL
Temperature Dewpoint
25°C / 77°F 25°C / 77°F
Humidity Altimeter Pressure
100% 29.88" Hg 1012 hPa